createdAt,value
2019-04-20T13:09:50.685Z,9.20
2019-04-20T13:12:52.242Z,5.30
2019-04-20T13:18:11.511Z,5.17
2019-04-20T13:20:41.815Z,5.50
2019-04-20T13:23:11.082Z,5.53
2019-04-20T13:40:30.993Z,5.63
2019-04-20T13:43:01.415Z,5.30
2019-04-20T13:45:31.027Z,5.10
2019-04-20T13:48:01.134Z,4.63
2019-04-20T13:50:31.589Z,5.30
2019-04-20T13:53:01.181Z,5.57
2019-04-20T13:55:30.273Z,5.30
2019-04-20T13:58:04.818Z,5.05
2019-04-20T14:00:57.317Z,12.70
2019-04-20T14:03:30.021Z,5.50
2019-04-20T14:06:02.637Z,6.40
2019-04-20T14:08:33.706Z,5.15
2019-04-20T14:11:03.120Z,6.60
2019-04-20T14:13:38.984Z,5.70
2019-04-20T14:16:03.164Z,5.00
2019-04-20T14:18:33.284Z,5.50
2019-04-20T14:21:02.499Z,5.30
2019-04-20T14:23:32.767Z,5.70
2019-04-20T14:26:03.054Z,5.40
2019-04-20T14:28:33.297Z,4.90
2019-04-20T14:31:03.681Z,5.00
2019-04-20T14:33:32.873Z,5.40
2019-04-20T14:36:03.153Z,4.97
2019-04-20T14:38:32.398Z,4.97
2019-04-20T14:41:02.248Z,5.20
2019-04-20T14:43:33.504Z,8.23
2019-04-20T14:46:03.031Z,5.40
2019-04-20T14:48:32.281Z,5.10
2019-04-20T14:51:01.613Z,5.30
2019-04-20T14:53:31.616Z,5.50
2019-04-20T14:56:01.759Z,5.57
2019-04-20T14:58:47.115Z,5.53
2019-04-20T15:01:34.760Z,7.23
2019-04-20T15:04:09.309Z,5.23
2019-04-20T15:06:37.650Z,5.60
2019-04-20T15:09:08.777Z,6.53
2019-04-20T15:11:40.996Z,5.60
2019-04-20T15:14:09.004Z,5.73
2019-04-20T15:16:38.526Z,5.63
2019-04-20T15:19:25.533Z,4.97
2019-04-20T15:21:57.733Z,5.70
2019-04-20T15:24:27.413Z,5.77
2019-04-20T15:26:56.878Z,4.93
2019-04-20T15:29:26.405Z,6.10
2019-04-20T15:31:56.528Z,4.70
2019-04-20T15:34:26.751Z,5.37
2019-04-20T15:36:56.043Z,6.20
2019-04-20T15:39:25.269Z,5.80
2019-04-20T15:41:54.648Z,4.70
2019-04-20T15:44:25.058Z,5.60
2019-04-20T15:46:55.263Z,5.37
2019-04-20T15:49:26.212Z,5.33
2019-04-20T15:51:55.693Z,4.60
2019-04-20T15:54:25.452Z,5.57
2019-04-20T15:56:58.803Z,4.60
2019-04-20T15:59:26.500Z,5.70
2019-04-20T16:02:00.511Z,5.77
2019-04-20T16:04:52.432Z,5.53
2019-04-20T16:07:21.559Z,5.13
2019-04-20T16:09:51.621Z,5.10
2019-04-20T16:12:21.020Z,5.33
2019-04-20T16:14:51.275Z,6.43
2019-04-20T16:17:24.274Z,5.30
2019-04-20T16:20:00.260Z,5.67
2019-04-20T16:22:23.852Z,5.70
2019-04-20T16:24:57.138Z,5.17
2019-04-20T16:27:38.105Z,4.97
2019-04-20T16:30:09.488Z,6.10
2019-04-20T16:32:38.776Z,4.87
2019-04-20T16:35:08.725Z,5.17
2019-04-20T16:37:38.406Z,4.90
2019-04-20T16:40:09.862Z,5.37
2019-04-20T16:42:40.933Z,5.40
2019-04-20T16:45:09.768Z,5.77
2019-04-20T16:47:39.920Z,5.30
2019-04-20T16:50:09.050Z,7.23
2019-04-20T16:52:38.980Z,6.17
2019-04-20T16:55:09.080Z,5.90
2019-04-20T16:57:39.701Z,5.70
2019-04-20T17:00:09.532Z,7.20
2019-04-20T17:02:38.641Z,6.77
2019-04-20T17:05:09.279Z,6.07
2019-04-20T17:07:44.750Z,5.40
2019-04-20T17:10:16.033Z,5.47
2019-04-20T17:12:46.039Z,5.73
2019-04-20T17:15:15.992Z,5.73
2019-04-20T17:17:46.749Z,5.70
2019-04-20T17:20:17.615Z,5.70
2019-04-20T17:22:46.885Z,5.83
2019-04-20T17:25:21.985Z,6.43
2019-04-20T17:28:11.139Z,5.27
2019-04-20T17:30:59.308Z,5.40
2019-04-20T17:33:47.418Z,5.60
2019-04-20T17:36:12.404Z,5.20
2019-04-20T17:38:43.400Z,5.10
2019-04-20T17:41:29.140Z,5.17
2019-04-20T17:44:01.420Z,5.70
2019-04-20T17:46:19.205Z,5.37
2019-04-20T17:48:59.724Z,5.43
2019-04-20T17:51:33.925Z,6.10
2019-04-20T17:54:05.305Z,5.30
2019-04-20T17:56:40.528Z,5.17
2019-04-20T17:59:10.330Z,9.00
2019-04-20T18:02:20.424Z,5.63
2019-04-20T18:05:20.326Z,5.00
2019-04-20T18:07:44.817Z,5.43
2019-04-20T18:10:19.979Z,5.00
2019-04-20T18:12:38.039Z,5.70
2019-04-20T18:15:21.756Z,4.13
2019-04-20T18:18:04.871Z,5.50
2019-04-20T18:20:30.524Z,5.17
2019-04-20T18:23:00.539Z,5.13
2019-04-20T18:25:54.915Z,4.57
2019-04-20T18:28:15.187Z,4.40
2019-04-20T18:30:46.827Z,5.90
2019-04-20T18:33:09.573Z,6.27
2019-04-20T18:35:43.377Z,5.23
2019-04-20T18:38:13.475Z,5.20
2019-04-20T18:40:51.360Z,10.37
2019-04-20T18:43:18.310Z,4.87
2019-04-20T18:46:03.818Z,5.00
2019-04-20T18:48:39.243Z,5.33
2019-04-20T18:50:47.050Z,5.83
2019-04-20T18:53:26.463Z,4.90
2019-04-20T18:55:49.559Z,5.07
2019-04-20T18:58:17.423Z,5.47
2019-04-20T19:00:51.222Z,4.60
2019-04-20T19:03:27.064Z,5.73
2019-04-20T19:05:49.543Z,6.10
2019-04-20T19:08:19.293Z,5.80
2019-04-20T19:10:58.889Z,4.80
2019-04-20T19:13:43.464Z,6.30
2019-04-20T19:16:49.650Z,5.27
2019-04-20T19:19:24.262Z,8.80
2019-04-20T19:21:45.925Z,5.30
2019-04-20T19:24:18.247Z,5.77
2019-04-20T19:26:51.544Z,5.70
2019-04-20T19:29:27.889Z,5.97
2019-04-20T19:32:07.369Z,7.03
2019-04-20T19:34:33.784Z,5.00
2019-04-20T19:37:00.832Z,6.20
2019-04-20T19:39:32.045Z,7.47
2019-04-20T19:41:59.704Z,7.00
2019-04-20T19:44:32.885Z,7.30
2019-04-20T19:47:12.020Z,6.40
2019-04-20T19:49:35.666Z,7.33
2019-04-20T19:52:25.446Z,6.70
2019-04-20T19:54:49.131Z,6.43
2019-04-20T19:57:10.020Z,9.30
2019-04-20T19:59:34.298Z,9.73
2019-04-20T20:01:56.236Z,7.17
2019-04-20T20:04:25.888Z,9.13
2019-04-20T20:07:02.045Z,9.60
2019-04-20T20:09:25.958Z,8.60
2019-04-20T20:11:57.205Z,8.40
2019-04-20T20:14:35.370Z,11.20
2019-04-20T20:17:13.823Z,12.70
2019-04-20T20:19:45.677Z,11.37
2019-04-20T20:22:09.232Z,12.30
2019-04-20T20:24:29.204Z,9.97
2019-04-20T20:27:04.190Z,12.07
2019-04-20T20:29:37.608Z,14.07
2019-04-20T20:32:10.190Z,14.10
2019-04-20T20:34:38.420Z,12.30
2019-04-20T20:37:08.772Z,13.57
2019-04-20T20:39:36.267Z,11.67
2019-04-20T20:42:15.594Z,12.17
2019-04-20T20:44:42.561Z,14.20
2019-04-20T20:47:31.396Z,13.80
2019-04-20T20:50:03.235Z,10.50
2019-04-20T20:52:22.023Z,11.37
2019-04-20T20:54:52.271Z,9.20
2019-04-20T20:57:14.857Z,9.03
2019-04-20T20:59:48.029Z,8.10
2019-04-20T21:02:15.846Z,7.83
2019-04-20T21:04:41.732Z,7.27
2019-04-20T21:07:11.032Z,8.23
2019-04-20T21:09:40.062Z,7.10
2019-04-20T21:12:13.968Z,8.50
2019-04-20T21:14:42.136Z,7.50
2019-04-20T21:17:17.610Z,7.70
2019-04-20T21:19:57.944Z,6.80
2019-04-20T21:22:22.208Z,8.20
2019-04-20T21:24:49.766Z,7.67
2019-04-20T21:27:21.551Z,8.00
2019-04-20T21:29:52.626Z,7.70
2019-04-20T21:32:21.575Z,7.87
2019-04-20T21:34:56.589Z,10.57
2019-04-20T21:37:23.981Z,6.80
2019-04-20T21:39:56.030Z,7.80
2019-04-20T21:42:25.198Z,8.97
2019-04-20T21:45:04.423Z,8.07
2019-04-20T21:47:30.742Z,8.27
2019-04-20T21:50:16.142Z,7.43
2019-04-20T21:52:35.563Z,8.53
2019-04-20T21:54:58.129Z,7.87
2019-04-20T21:57:32.595Z,7.70
2019-04-20T22:00:07.050Z,8.13
2019-04-20T22:02:33.906Z,7.63
2019-04-20T22:05:00.943Z,7.70
2019-04-20T22:07:30.494Z,8.80
2019-04-20T22:10:00.277Z,7.93
2019-04-20T22:12:38.434Z,7.83
2019-04-20T22:15:06.607Z,8.47
2019-04-20T22:17:35.089Z,7.40
2019-04-20T22:20:13.244Z,8.40
2019-04-20T22:22:50.962Z,7.63
2019-04-20T22:25:23.448Z,8.43
2019-04-20T22:27:35.139Z,8.47
2019-04-20T22:30:08.106Z,8.33
2019-04-20T22:32:43.268Z,9.53
2019-04-20T22:35:13.471Z,7.63
2019-04-20T22:37:45.617Z,8.23
2019-04-20T22:40:19.659Z,8.70
2019-04-20T22:42:49.478Z,9.97
2019-04-20T22:45:17.370Z,9.80
2019-04-20T22:47:48.164Z,9.17
2019-04-20T22:50:34.014Z,9.20
2019-04-20T22:52:56.934Z,9.23
2019-04-20T22:55:45.562Z,10.37
2019-04-20T22:58:01.449Z,9.73
2019-04-20T23:00:31.069Z,10.00
2019-04-20T23:02:52.241Z,9.20
2019-04-20T23:05:22.440Z,10.53
2019-04-20T23:07:52.649Z,10.17
2019-04-20T23:10:30.461Z,9.73
2019-04-20T23:12:56.187Z,10.03
2019-04-20T23:15:23.481Z,10.37
2019-04-20T23:17:53.917Z,9.77
2019-04-20T23:20:27.661Z,10.30
2019-04-20T23:22:54.769Z,10.27
2019-04-20T23:25:25.050Z,11.80
2019-04-20T23:28:00.207Z,9.50
2019-04-20T23:30:30.401Z,10.40
2019-04-20T23:32:56.047Z,9.87
2019-04-20T23:35:26.726Z,10.50
2019-04-20T23:38:02.914Z,11.33
2019-04-20T23:40:27.783Z,10.07
2019-04-20T23:43:07.800Z,10.53
2019-04-20T23:45:59.199Z,9.97
2019-04-20T23:48:38.838Z,9.23
2019-04-20T23:51:29.934Z,9.93
2019-04-20T23:53:48.203Z,10.90
2019-04-20T23:56:05.891Z,11.07
2019-04-20T23:58:43.003Z,10.13
